Time;durP1;ratioP1;P1;durP2;ratioP2;P2;SDS_P1;SDS_P2;PMS_P1;PMS_P2;Temp;Humidity;BMP_temperature;BMP_pressure;BME280_temperature;BME280_humidity;BME280_pressure;Samples;Min_cycle;Max_cycle;Signal;HPM_P1;HPM_P2
2021/12/22 00:01:25;;;;;;;9.97;7.60;;;0.40;99.90;;;;;;4993251;28;20636;-52
2021/12/22 00:03:55;;;;;;;11.50;6.63;;;0.40;99.90;;;;;;4994581;28;20559;-51
2021/12/22 00:06:24;;;;;;;9.30;6.70;;;0.40;99.90;;;;;;4991641;28;20955;-52
2021/12/22 00:08:51;;;;;;;7.97;6.20;;;0.40;99.90;;;;;;4994452;28;20484;-52
2021/12/22 00:11:18;;;;;;;8.73;7.00;;;0.40;99.90;;;;;;4990403;28;20503;-51
2021/12/22 00:13:45;;;;;;;9.97;7.03;;;0.40;99.90;;;;;;4993959;28;20508;-52
2021/12/22 00:16:12;;;;;;;7.10;6.40;;;0.40;99.90;;;;;;4993061;28;20499;-52
2021/12/22 00:18:38;;;;;;;6.80;5.20;;;0.20;99.90;;;;;;4994394;28;20480;-51
2021/12/22 00:21:06;;;;;;;7.70;5.77;;;0.30;99.90;;;;;;4993030;28;20515;-53
2021/12/22 00:23:33;;;;;;;5.87;5.30;;;0.40;99.90;;;;;;4994379;28;20494;-52
2021/12/22 00:26:00;;;;;;;6.10;4.63;;;0.30;99.90;;;;;;4993275;28;20465;-52
2021/12/22 00:28:26;;;;;;;5.47;4.63;;;0.30;99.90;;;;;;4977425;28;20501;-52
2021/12/22 00:30:53;;;;;;;4.43;4.00;;;0.30;99.90;;;;;;4991712;28;20523;-52
2021/12/22 00:33:20;;;;;;;7.07;4.30;;;0.30;99.90;;;;;;4984787;28;20505;-52
2021/12/22 00:35:47;;;;;;;8.77;4.53;;;0.30;99.90;;;;;;4990674;28;20491;-51
2021/12/22 00:38:17;;;;;;;6.57;4.53;;;0.30;99.90;;;;;;4992499;28;20516;-52
2021/12/22 00:40:45;;;;;;;5.63;5.00;;;0.30;99.90;;;;;;4992866;28;20492;-52
2021/12/22 00:43:11;;;;;;;6.23;4.30;;;0.30;99.90;;;;;;4989880;28;20504;-52
2021/12/22 00:45:39;;;;;;;4.70;4.23;;;0.30;99.90;;;;;;4989081;28;20496;-51
2021/12/22 00:48:08;;;;;;;3.90;3.50;;;0.20;99.90;;;;;;4992583;28;20539;-52
2021/12/22 00:50:36;;;;;;;5.70;4.47;;;0.30;99.90;;;;;;4992546;28;20893;-52
2021/12/22 00:53:03;;;;;;;12.47;5.30;;;0.20;99.90;;;;;;4992913;28;20469;-52
2021/12/22 00:55:31;;;;;;;5.30;4.17;;;0.30;99.90;;;;;;4992678;28;20492;-51
2021/12/22 00:57:58;;;;;;;4.73;3.90;;;0.30;99.90;;;;;;4989929;28;20520;-51
2021/12/22 01:00:28;;;;;;;5.17;4.40;;;0.30;99.90;;;;;;4992912;28;20568;-53
2021/12/22 01:02:55;;;;;;;5.57;4.70;;;0.30;99.90;;;;;;4992680;28;20500;-52
2021/12/22 01:05:22;;;;;;;5.80;4.37;;;0.40;79.80;;;;;;4993579;28;21017;-52
2021/12/22 01:07:50;;;;;;;7.50;5.27;;;0.30;26.10;;;;;;4991923;28;20496;-52
2021/12/22 01:10:18;;;;;;;7.33;5.90;;;0.40;99.90;;;;;;4991823;28;20488;-52
2021/12/22 01:12:47;;;;;;;9.80;5.60;;;0.30;99.90;;;;;;4992451;28;20507;-52
2021/12/22 01:15:14;;;;;;;7.17;5.60;;;0.40;99.90;;;;;;4990891;28;20515;-53
2021/12/22 01:17:44;;;;;;;6.50;5.50;;;0.40;99.90;;;;;;4990610;28;21064;-51
2021/12/22 01:20:19;;;;;;;11.17;6.30;;;0.40;99.90;;;;;;4993276;28;20456;-52
2021/12/22 01:22:49;;;;;;;7.10;5.47;;;0.30;99.90;;;;;;4992348;28;21192;-52
2021/12/22 01:25:19;;;;;;;9.77;6.33;;;0.30;99.90;;;;;;4980479;28;20468;-52
2021/12/22 01:27:47;;;;;;;10.43;6.57;;;0.40;99.90;;;;;;4992350;28;20456;-53
2021/12/22 01:30:18;;;;;;;7.90;5.87;;;0.30;99.90;;;;;;4982104;28;20500;-52
2021/12/22 01:32:45;;;;;;;8.23;5.87;;;0.30;99.90;;;;;;4990255;28;20480;-52
2021/12/22 01:35:15;;;;;;;9.60;6.20;;;0.30;99.90;;;;;;4988848;28;20497;-52
2021/12/22 01:37:41;;;;;;;6.23;5.63;;;0.40;99.90;;;;;;4985399;28;20527;-52
2021/12/22 01:40:10;;;;;;;9.67;6.33;;;0.40;99.90;;;;;;4992677;28;20503;-52
2021/12/22 01:42:38;;;;;;;10.63;6.80;;;0.50;99.90;;;;;;4992688;28;20480;-52
2021/12/22 01:45:27;;;;;;;9.93;8.10;;;0.40;99.90;;;;;;4987199;28;20481;-52
2021/12/22 01:50:42;;;;;;;11.77;8.50;;;0.50;99.90;;;;;;4974564;28;20467;-51
2021/12/22 01:53:32;;;;;;;9.60;7.17;;;0.50;99.90;;;;;;4989933;28;20501;-52
2021/12/22 01:56:07;;;;;;;10.53;6.23;;;0.50;99.90;;;;;;4973455;28;20456;-51
2021/12/22 01:58:36;;;;;;;9.93;6.90;;;0.40;99.90;;;;;;4984654;28;20480;-52
2021/12/22 02:01:06;;;;;;;9.93;7.27;;;0.50;99.90;;;;;;4991365;28;20550;-52
2021/12/22 02:03:32;;;;;;;12.53;8.60;;;0.50;99.90;;;;;;4990324;28;20524;-59
2021/12/22 02:06:02;;;;;;;11.43;8.20;;;0.60;99.90;;;;;;4990811;28;20468;-52
2021/12/22 02:08:28;;;;;;;8.90;7.07;;;0.60;99.90;;;;;;4990691;28;20551;-52
2021/12/22 02:10:55;;;;;;;11.40;8.17;;;0.60;99.90;;;;;;4989884;28;20465;-51
2021/12/22 02:13:27;;;;;;;10.33;8.63;;;0.60;99.90;;;;;;4992895;28;20903;-53
2021/12/22 02:15:54;;;;;;;11.43;7.17;;;0.60;99.90;;;;;;4991752;28;20478;-52
2021/12/22 02:18:22;;;;;;;10.53;7.87;;;0.60;99.90;;;;;;4990375;28;21083;-51
2021/12/22 02:20:51;;;;;;;10.13;7.73;;;0.60;99.90;;;;;;4987879;28;21044;-53
2021/12/22 02:23:18;;;;;;;8.10;7.30;;;0.60;99.90;;;;;;4991300;28;20805;-52
2021/12/22 02:25:52;;;;;;;11.77;9.07;;;0.60;99.90;;;;;;4992095;28;20661;-52
2021/12/22 02:28:23;;;;;;;10.63;8.00;;;0.60;99.90;;;;;;4989256;28;20462;-53
2021/12/22 02:30:51;;;;;;;16.53;9.23;;;0.60;99.90;;;;;;4992185;28;20547;-53
2021/12/22 02:33:23;;;;;;;17.50;9.50;;;0.60;99.90;;;;;;4991937;28;20496;-52
2021/12/22 02:36:06;;;;;;;10.83;8.23;;;0.60;99.90;;;;;;4991520;28;21161;-53
2021/12/22 02:38:34;;;;;;;14.50;9.10;;;0.70;99.90;;;;;;4989792;28;20506;-53
2021/12/22 02:41:01;;;;;;;15.30;9.60;;;0.70;99.90;;;;;;4987766;28;20492;-53
2021/12/22 02:43:32;;;;;;;13.17;9.37;;;0.70;99.90;;;;;;4990019;28;20570;-53
2021/12/22 02:45:59;;;;;;;12.13;9.70;;;0.70;99.90;;;;;;4988363;28;20860;-53
2021/12/22 02:48:29;;;;;;;11.10;8.83;;;0.70;99.90;;;;;;4990420;28;20549;-52
2021/12/22 02:50:58;;;;;;;15.43;8.70;;;0.70;99.90;;;;;;4990171;28;20613;-51
2021/12/22 02:53:30;;;;;;;13.30;9.70;;;0.60;99.90;;;;;;4988909;28;20484;-52
2021/12/22 02:56:01;;;;;;;11.73;8.67;;;0.70;99.90;;;;;;4987131;28;20534;-52
2021/12/22 02:58:35;;;;;;;12.63;8.40;;;0.70;99.90;;;;;;4993704;28;20491;-50
2021/12/22 03:01:11;;;;;;;10.73;8.93;;;0.70;99.90;;;;;;4993548;28;20507;-53
2021/12/22 03:03:55;;;;;;;10.93;8.20;;;0.60;99.90;;;;;;4995746;28;20499;-52
2021/12/22 03:06:30;;;;;;;11.10;8.30;;;0.70;99.90;;;;;;4994487;28;20461;-52
2021/12/22 03:08:57;;;;;;;12.53;8.37;;;0.70;99.90;;;;;;4993840;28;20491;-51
2021/12/22 03:11:24;;;;;;;9.47;8.17;;;0.70;99.90;;;;;;4994427;28;20837;-51
2021/12/22 03:13:51;;;;;;;9.87;8.13;;;0.60;99.90;;;;;;4993481;28;20520;-52
2021/12/22 03:16:18;;;;;;;11.53;8.70;;;0.70;99.90;;;;;;4994597;28;20514;-52
2021/12/22 03:18:45;;;;;;;9.73;7.77;;;0.60;99.90;;;;;;4995507;28;20575;-51
2021/12/22 03:21:19;;;;;;;11.47;8.10;;;0.60;99.90;;;;;;4993658;28;20464;-52
2021/12/22 03:23:48;;;;;;;10.63;7.93;;;0.50;28.20;;;;;;4994123;28;20493;-51
2021/12/22 03:26:17;;;;;;;8.53;7.70;;;0.50;98.60;;;;;;4986360;28;20480;-52
2021/12/22 03:28:44;;;;;;;19.60;7.10;;;0.50;99.90;;;;;;4994567;28;21126;-52
2021/12/22 03:31:11;;;;;;;8.87;6.30;;;0.50;99.90;;;;;;4992617;28;20496;-52
2021/12/22 03:33:38;;;;;;;9.63;6.50;;;0.60;20.80;;;;;;4993088;28;21020;-52
2021/12/22 03:36:04;;;;;;;8.73;6.07;;;0.50;32.80;;;;;;4993814;28;20469;-51
2021/12/22 03:38:32;;;;;;;9.07;6.67;;;0.50;42.60;;;;;;4994577;28;20504;-52
2021/12/22 03:41:01;;;;;;;9.33;6.17;;;0.50;40.00;;;;;;4991528;28;21041;-52
2021/12/22 03:43:27;;;;;;;6.27;5.63;;;0.40;52.20;;;;;;4994776;28;20511;-52
2021/12/22 03:45:54;;;;;;;8.57;6.00;;;0.40;52.20;;;;;;4992474;28;20496;-52
2021/12/22 03:48:22;;;;;;;8.70;5.47;;;0.40;48.10;;;;;;4994599;28;20476;-51
2021/12/22 03:50:49;;;;;;;8.13;5.80;;;0.40;44.80;;;;;;4986807;28;20476;-52
2021/12/22 03:53:15;;;;;;;13.27;6.83;;;0.40;44.50;;;;;;4989838;28;20548;-52
2021/12/22 03:55:42;;;;;;;8.83;6.13;;;0.40;42.80;;;;;;4991512;28;20544;-52
2021/12/22 03:58:10;;;;;;;11.70;6.73;;;0.40;42.80;;;;;;4991849;28;20519;-52
2021/12/22 04:00:39;;;;;;;7.33;6.07;;;0.30;47.80;;;;;;4992751;28;20503;-51
2021/12/22 04:03:08;;;;;;;9.60;5.63;;;0.30;34.10;;;;;;4990435;28;20468;-52
2021/12/22 04:05:35;;;;;;;8.13;5.70;;;0.30;32.40;;;;;;4991760;28;20460;-51
2021/12/22 04:08:01;;;;;;;9.30;5.63;;;0.30;46.90;;;;;;4994828;28;20909;-52
2021/12/22 04:10:28;;;;;;;6.23;5.60;;;0.20;56.00;;;;;;4991703;28;20503;-51
2021/12/22 04:12:57;;;;;;;4.60;4.20;;;0.20;59.90;;;;;;4994314;28;20457;-54
2021/12/22 04:15:28;;;;;;;7.40;5.27;;;0.20;52.60;;;;;;4991656;28;20919;-51
2021/12/22 04:17:55;;;;;;;9.10;5.50;;;0.20;49.10;;;;;;4986948;28;20521;-57
2021/12/22 04:20:22;;;;;;;6.93;5.77;;;0.10;39.80;;;;;;4992442;28;20541;-57
2021/12/22 04:22:48;;;;;;;7.60;5.33;;;0.10;41.10;;;;;;4993428;28;20485;-55
2021/12/22 04:25:20;;;;;;;6.47;5.50;;;0.00;54.60;;;;;;4991480;28;20480;-55
2021/12/22 04:27:48;;;;;;;6.47;5.60;;;0.00;51.70;;;;;;4993886;28;20456;-57
2021/12/22 04:30:15;;;;;;;7.00;4.67;;;-0.10;39.90;;;;;;4993566;28;20555;-56
2021/12/22 04:32:43;;;;;;;7.70;5.40;;;0.00;37.80;;;;;;4991530;28;21153;-56
2021/12/22 04:35:09;;;;;;;14.87;6.03;;;0.00;32.50;;;;;;4993372;28;20607;-56
2021/12/22 04:37:36;;;;;;;6.43;5.10;;;0.00;30.50;;;;;;4993394;28;20487;-56
2021/12/22 04:40:04;;;;;;;7.57;5.60;;;0.00;30.00;;;;;;4991645;28;20556;-55
2021/12/22 04:42:30;;;;;;;10.10;6.40;;;0.00;29.20;;;;;;4993383;28;20464;-56
2021/12/22 04:44:58;;;;;;;9.33;6.40;;;-0.10;78.90;;;;;;4989244;28;20534;-55
2021/12/22 04:47:25;;;;;;;9.60;6.73;;;-0.10;91.60;;;;;;4993992;28;20452;-52
2021/12/22 04:49:53;;;;;;;8.03;6.17;;;0.00;99.90;;;;;;4992124;28;20871;-52
2021/12/22 04:52:21;;;;;;;8.03;7.23;;;0.00;99.90;;;;;;4992330;28;20488;-52
2021/12/22 04:54:52;;;;;;;8.00;6.93;;;0.00;99.90;;;;;;4992795;28;20571;-52
2021/12/22 04:57:18;;;;;;;11.33;6.90;;;0.00;99.90;;;;;;4991193;28;20464;-52
2021/12/22 04:59:45;;;;;;;10.00;6.83;;;0.00;99.90;;;;;;4992735;28;20520;-52
2021/12/22 05:02:11;;;;;;;8.63;6.70;;;0.10;99.90;;;;;;4992732;28;20472;-52
2021/12/22 05:04:38;;;;;;;8.37;6.90;;;0.10;28.20;;;;;;4991225;28;20508;-52
2021/12/22 05:07:06;;;;;;;6.83;6.00;;;0.00;26.00;;;;;;4991469;28;20495;-52
2021/12/22 05:09:32;;;;;;;7.70;6.60;;;-0.10;32.40;;;;;;4993326;28;20479;-52
2021/12/22 05:11:59;;;;;;;9.30;6.80;;;-0.10;24.60;;;;;;4983810;28;20911;-51
2021/12/22 05:14:25;;;;;;;10.10;5.87;;;-0.10;83.10;;;;;;4990563;28;20875;-52
2021/12/22 05:16:58;;;;;;;7.80;5.80;;;0.00;99.90;;;;;;4991931;28;20994;-52
2021/12/22 05:19:25;;;;;;;8.27;6.43;;;0.00;99.90;;;;;;4988369;28;20563;-52
2021/12/22 05:21:51;;;;;;;9.47;6.23;;;0.00;22.30;;;;;;4990086;28;20551;-52
2021/12/22 05:24:19;;;;;;;10.33;6.67;;;0.10;25.10;;;;;;4992161;28;20567;-52
2021/12/22 05:26:46;;;;;;;7.67;6.60;;;0.00;32.30;;;;;;4993078;28;20465;-52
2021/12/22 05:29:12;;;;;;;11.90;6.53;;;0.10;36.80;;;;;;4992192;28;20536;-52
2021/12/22 05:31:39;;;;;;;13.30;5.77;;;0.00;37.20;;;;;;4991655;28;20515;-52
2021/12/22 05:34:06;;;;;;;10.27;7.03;;;0.00;46.40;;;;;;4992829;28;20500;-52
2021/12/22 05:36:33;;;;;;;6.70;5.87;;;0.00;48.80;;;;;;4990917;28;20464;-52
2021/12/22 05:38:59;;;;;;;13.10;6.90;;;0.00;31.30;;;;;;4991681;28;20508;-51
2021/12/22 05:41:27;;;;;;;7.13;5.97;;;0.00;21.70;;;;;;4987005;28;20462;-49
2021/12/22 05:43:54;;;;;;;9.60;6.43;;;0.00;28.60;;;;;;4976696;28;20516;-49
2021/12/22 05:46:20;;;;;;;15.43;7.40;;;0.00;30.90;;;;;;4990882;28;20511;-49
2021/12/22 05:48:48;;;;;;;7.80;5.27;;;0.10;31.00;;;;;;4992345;28;20519;-49
2021/12/22 05:51:15;;;;;;;6.33;5.73;;;0.10;48.40;;;;;;4987358;28;20468;-49
2021/12/22 05:53:41;;;;;;;10.00;6.00;;;0.10;44.30;;;;;;4987879;28;20590;-48
2021/12/22 05:56:08;;;;;;;9.10;8.20;;;0.10;37.30;;;;;;4990784;28;20614;-48
2021/12/22 05:58:36;;;;;;;9.33;7.30;;;0.10;52.30;;;;;;4987999;28;20571;-48
2021/12/22 06:01:02;;;;;;;9.97;7.47;;;0.10;59.80;;;;;;4982334;28;20567;-48
2021/12/22 06:03:29;;;;;;;12.00;6.13;;;0.00;57.00;;;;;;4992598;28;20511;-48
2021/12/22 06:05:55;;;;;;;7.07;6.37;;;0.00;49.10;;;;;;4990469;28;20961;-48
2021/12/22 06:08:22;;;;;;;14.30;6.93;;;-0.10;61.20;;;;;;4991539;28;20520;-49
2021/12/22 06:10:49;;;;;;;8.37;6.87;;;-0.20;56.90;;;;;;4990315;28;20496;-48
2021/12/22 06:13:15;;;;;;;8.63;7.17;;;-0.20;50.40;;;;;;4990398;28;20507;-49
2021/12/22 06:15:43;;;;;;;7.93;7.13;;;-0.30;34.20;;;;;;4992372;28;20456;-49
2021/12/22 06:18:10;;;;;;;11.60;6.67;;;-0.40;99.90;;;;;;4991032;28;20499;-48
2021/12/22 06:20:37;;;;;;;10.80;8.20;;;-0.40;99.90;;;;;;4992473;28;20548;-48
2021/12/22 06:23:04;;;;;;;7.93;6.77;;;-0.40;99.90;;;;;;4988215;28;20934;-48
2021/12/22 06:25:31;;;;;;;9.73;7.37;;;-0.40;99.90;;;;;;4992239;28;20506;-49
2021/12/22 06:27:57;;;;;;;8.83;7.60;;;-0.50;99.90;;;;;;4991047;28;20547;-48
2021/12/22 06:30:24;;;;;;;11.17;7.27;;;-0.50;99.90;;;;;;4992222;28;21013;-48
2021/12/22 06:32:53;;;;;;;10.20;7.97;;;-0.50;99.90;;;;;;4991997;28;20497;-48
2021/12/22 06:35:20;;;;;;;8.30;7.50;;;-0.50;99.90;;;;;;4996517;28;20504;-54
2021/12/22 06:37:47;;;;;;;10.03;7.73;;;-0.60;99.90;;;;;;4993129;28;20508;-54
2021/12/22 06:40:14;;;;;;;11.03;7.50;;;-0.60;99.90;;;;;;4982682;28;20539;-55
2021/12/22 06:42:41;;;;;;;13.00;7.73;;;-0.70;99.90;;;;;;4995958;28;20984;-54
2021/12/22 06:45:10;;;;;;;9.93;9.00;;;-0.70;99.90;;;;;;4992105;28;20508;-56
2021/12/22 06:47:36;;;;;;;11.03;9.70;;;-0.70;99.90;;;;;;4995164;28;20460;-54
2021/12/22 06:50:06;;;;;;;16.10;12.87;;;-0.80;99.90;;;;;;4995463;28;20495;-56
2021/12/22 06:52:33;;;;;;;14.43;10.87;;;-0.80;99.90;;;;;;4993259;28;20550;-55
2021/12/22 06:55:00;;;;;;;13.70;11.30;;;-0.90;99.90;;;;;;4994017;28;20511;-55
2021/12/22 06:57:29;;;;;;;23.47;11.70;;;-0.90;99.90;;;;;;4984328;28;20469;-52
2021/12/22 06:59:56;;;;;;;19.07;10.43;;;-1.00;99.90;;;;;;4994985;28;20994;-52
2021/12/22 07:02:24;;;;;;;15.87;11.33;;;-1.00;99.90;;;;;;4995444;28;20543;-51
2021/12/22 07:04:51;;;;;;;14.67;12.07;;;-1.00;99.90;;;;;;4988057;28;20543;-52
2021/12/22 07:07:19;;;;;;;18.07;11.90;;;-1.10;99.90;;;;;;4987883;28;20547;-49
2021/12/22 07:09:45;;;;;;;14.43;11.10;;;-1.10;99.90;;;;;;4991173;28;20483;-57
2021/12/22 07:12:12;;;;;;;11.73;10.47;;;-1.10;99.90;;;;;;4987307;28;21152;-55
2021/12/22 07:14:39;;;;;;;11.40;9.77;;;-1.10;99.90;;;;;;4988216;28;21053;-57
2021/12/22 07:17:05;;;;;;;14.57;9.50;;;-1.20;99.90;;;;;;4993932;28;20522;-56
2021/12/22 07:19:32;;;;;;;10.47;9.40;;;-1.20;99.90;;;;;;4994078;28;20516;-55
2021/12/22 07:21:59;;;;;;;14.27;8.57;;;-1.20;99.90;;;;;;4987356;28;20559;-55
2021/12/22 07:24:26;;;;;;;28.73;17.33;;;-1.30;99.90;;;;;;4989256;28;20535;-56
2021/12/22 07:26:53;;;;;;;99.90;56.30;;;-1.40;99.90;;;;;;4992429;28;20503;-55
2021/12/22 07:29:19;;;;;;;53.63;31.30;;;-1.40;99.90;;;;;;4989094;28;20488;-57
2021/12/22 07:31:46;;;;;;;24.70;16.10;;;-1.40;99.90;;;;;;4988567;28;20496;-55
2021/12/22 07:34:20;;;;;;;22.93;15.80;;;-1.40;99.90;;;;;;4989224;28;20524;-55
2021/12/22 07:36:55;;;;;;;10.73;9.50;;;-1.40;99.90;;;;;;4985602;28;20547;-56
2021/12/22 07:39:21;;;;;;;17.60;12.10;;;-1.30;99.90;;;;;;4991343;28;20520;-55
2021/12/22 07:41:49;;;;;;;11.93;9.10;;;-1.30;99.90;;;;;;4991849;28;22219;-56
2021/12/22 07:44:16;;;;;;;11.27;8.70;;;-1.30;99.90;;;;;;4991853;28;20499;-56
2021/12/22 07:46:43;;;;;;;10.33;8.30;;;-1.30;99.90;;;;;;4988721;28;20469;-56
2021/12/22 07:49:09;;;;;;;11.07;7.90;;;-1.30;99.90;;;;;;4987778;28;20499;-57
2021/12/22 07:51:36;;;;;;;10.53;7.73;;;-1.30;99.90;;;;;;4986367;28;20563;-56
2021/12/22 07:54:02;;;;;;;13.03;8.37;;;-1.30;99.90;;;;;;4989316;28;20516;-56
2021/12/22 07:56:29;;;;;;;16.17;7.53;;;-1.30;99.90;;;;;;4991390;28;20508;-55
2021/12/22 07:58:57;;;;;;;9.40;7.20;;;-1.20;99.90;;;;;;4990303;28;20524;-57
2021/12/22 08:01:23;;;;;;;12.47;8.40;;;-1.30;99.90;;;;;;4990211;28;20579;-51
2021/12/22 08:03:50;;;;;;;12.73;8.27;;;-1.30;99.90;;;;;;4991058;28;20574;-51
2021/12/22 08:06:16;;;;;;;8.40;7.60;;;-1.30;99.90;;;;;;4986246;28;20556;-51
2021/12/22 08:08:43;;;;;;;7.50;6.80;;;-1.20;99.90;;;;;;4985666;28;20544;-51
2021/12/22 08:11:10;;;;;;;11.87;7.83;;;-1.20;99.90;;;;;;4987332;28;20464;-50
2021/12/22 08:13:36;;;;;;;10.97;8.10;;;-1.10;99.90;;;;;;4980979;28;20575;-52
2021/12/22 08:16:05;;;;;;;14.00;7.13;;;-1.10;99.90;;;;;;4978492;28;20548;-50
2021/12/22 08:18:32;;;;;;;10.60;8.20;;;-1.10;99.90;;;;;;4980341;28;20967;-50
2021/12/22 08:20:58;;;;;;;11.30;8.07;;;-1.00;99.90;;;;;;4981837;28;20575;-51
2021/12/22 08:23:25;;;;;;;9.27;7.97;;;-0.90;99.90;;;;;;4984096;28;20513;-52
2021/12/22 08:25:51;;;;;;;8.20;7.30;;;-0.90;99.90;;;;;;4985484;28;20958;-55
2021/12/22 08:28:18;;;;;;;8.90;7.43;;;-0.80;99.90;;;;;;4984554;28;20558;-55
2021/12/22 08:30:45;;;;;;;8.80;7.17;;;-0.80;99.90;;;;;;4985177;28;20465;-55
2021/12/22 08:33:20;;;;;;;10.80;7.80;;;-0.70;99.90;;;;;;4981234;28;21006;-56
2021/12/22 08:41:21;;;;;;;11.50;8.67;;;-0.50;99.90;;;;;;4981823;28;20473;-56
2021/12/22 08:43:48;;;;;;;11.37;10.17;;;-0.40;99.90;;;;;;4981201;28;20592;-57
2021/12/22 08:46:15;;;;;;;18.87;13.10;;;-0.20;99.90;;;;;;4983228;28;20547;-51
2021/12/22 08:48:43;;;;;;;20.70;13.23;;;-0.10;99.90;;;;;;4985068;28;20543;-50
2021/12/22 08:51:10;;;;;;;15.40;11.17;;;0.00;99.90;;;;;;4985579;28;20472;-51
2021/12/22 08:53:37;;;;;;;17.17;11.50;;;0.20;99.90;;;;;;4981619;28;21840;-51
2021/12/22 08:56:04;;;;;;;20.03;11.87;;;0.20;99.90;;;;;;4984709;28;20551;-51
2021/12/22 08:58:31;;;;;;;15.03;10.20;;;0.30;99.90;;;;;;4984025;28;20487;-50
2021/12/22 09:00:58;;;;;;;15.00;11.00;;;0.30;93.10;;;;;;4980434;28;20571;-50
2021/12/22 09:03:24;;;;;;;17.43;10.03;;;0.40;30.80;;;;;;4982916;28;20582;-51
2021/12/22 09:05:52;;;;;;;25.73;11.53;;;0.40;50.40;;;;;;4968543;28;20560;-51
2021/12/22 09:08:19;;;;;;;12.27;8.90;;;0.50;62.00;;;;;;4961914;28;20470;-50
2021/12/22 09:10:45;;;;;;;12.77;9.23;;;0.70;55.20;;;;;;4965897;28;22691;-51
2021/12/22 09:13:13;;;;;;;16.53;11.00;;;0.80;60.70;;;;;;4965048;28;20468;-50
2021/12/22 09:15:40;;;;;;;19.97;10.57;;;0.80;91.50;;;;;;4969520;28;20549;-51
2021/12/22 09:18:07;;;;;;;14.97;11.00;;;0.80;88.10;;;;;;4984845;28;20479;-52
2021/12/22 09:20:33;;;;;;;12.73;10.03;;;0.90;93.30;;;;;;4989014;28;20520;-51
2021/12/22 09:23:02;;;;;;;13.10;10.27;;;0.90;98.10;;;;;;4986461;28;20464;-54
2021/12/22 09:25:28;;;;;;;12.87;10.63;;;0.90;99.90;;;;;;4988989;28;20480;-51
2021/12/22 09:27:55;;;;;;;14.20;11.40;;;1.00;95.70;;;;;;4975641;28;21621;-50
2021/12/22 09:30:22;;;;;;;21.90;11.00;;;0.90;90.20;;;;;;4979623;28;20544;-51
2021/12/22 09:32:48;;;;;;;18.00;11.73;;;0.90;93.60;;;;;;4984566;28;20484;-51
2021/12/22 09:35:15;;;;;;;14.90;10.23;;;1.00;97.40;;;;;;4986582;28;21017;-50
2021/12/22 09:37:41;;;;;;;26.73;12.00;;;1.10;99.90;;;;;;4984398;28;20548;-50
2021/12/22 09:40:11;;;;;;;14.60;12.13;;;1.20;99.90;;;;;;4984430;28;20550;-50
2021/12/22 09:42:38;;;;;;;15.60;11.80;;;1.30;99.90;;;;;;4987646;28;20547;-51
2021/12/22 09:45:06;;;;;;;14.10;11.83;;;1.30;99.90;;;;;;4981668;28;20516;-50
2021/12/22 09:47:48;;;;;;;15.47;12.63;;;1.40;99.90;;;;;;4978942;28;20561;-50
2021/12/22 09:50:24;;;;;;;20.13;13.43;;;1.50;99.90;;;;;;4979678;28;20985;-50
2021/12/22 09:52:51;;;;;;;16.60;13.17;;;1.60;99.90;;;;;;4979107;28;21015;-51
2021/12/22 09:55:19;;;;;;;14.67;12.27;;;1.60;99.90;;;;;;4987065;28;20560;-51
2021/12/22 09:57:46;;;;;;;16.17;11.43;;;1.60;99.90;;;;;;4988614;28;20507;-50
2021/12/22 10:00:13;;;;;;;22.23;14.70;;;1.70;99.90;;;;;;4974878;28;20491;-51
2021/12/22 10:02:40;;;;;;;15.87;12.30;;;1.70;99.90;;;;;;4983185;28;21038;-51
2021/12/22 10:05:07;;;;;;;15.87;13.57;;;1.80;99.90;;;;;;4981309;28;20488;-51
2021/12/22 10:07:38;;;;;;;16.20;12.60;;;2.00;99.90;;;;;;4976944;28;20982;-55
2021/12/22 10:10:08;;;;;;;14.33;12.37;;;2.00;99.90;;;;;;4980610;28;20460;-56
2021/12/22 10:12:36;;;;;;;13.07;11.23;;;1.90;99.90;;;;;;4984486;28;20560;-55
2021/12/22 10:15:07;;;;;;;16.37;12.67;;;1.80;99.90;;;;;;4982911;28;20595;-50
2021/12/22 10:17:37;;;;;;;13.93;10.90;;;2.00;99.90;;;;;;4990432;28;20500;-52
2021/12/22 10:20:09;;;;;;;14.53;12.03;;;2.00;99.90;;;;;;4977905;28;20483;-50
2021/12/22 10:22:37;;;;;;;13.83;12.03;;;2.10;99.90;;;;;;4979586;28;20560;-51
2021/12/22 10:25:15;;;;;;;19.23;11.23;;;2.00;99.90;;;;;;4980852;28;20591;-52
2021/12/22 10:27:46;;;;;;;15.00;11.77;;;1.80;99.90;;;;;;4978233;28;22264;-51
2021/12/22 10:30:25;;;;;;;18.23;13.10;;;1.70;99.90;;;;;;4977024;28;20456;-51
2021/12/22 10:33:05;;;;;;;20.40;12.53;;;1.70;99.90;;;;;;4982105;28;20958;-50
2021/12/22 10:35:33;;;;;;;17.10;12.53;;;1.70;99.90;;;;;;4977776;28;20572;-51
2021/12/22 10:38:00;;;;;;;16.83;13.33;;;1.90;99.90;;;;;;4984432;28;20547;-51
2021/12/22 10:40:30;;;;;;;18.73;13.70;;;2.20;99.90;;;;;;4983122;28;20563;-50
2021/12/22 10:42:59;;;;;;;14.30;11.80;;;2.30;99.90;;;;;;4977087;28;20981;-51
2021/12/22 10:45:29;;;;;;;17.73;12.83;;;2.40;99.90;;;;;;4975175;28;20520;-48
2021/12/22 10:50:42;;;;;;;15.90;13.03;;;2.70;99.90;;;;;;4974584;28;20467;-46
2021/12/22 10:53:10;;;;;;;42.93;14.00;;;2.70;99.90;;;;;;4977323;28;20875;-47
2021/12/22 10:55:39;;;;;;;17.77;14.33;;;2.60;99.90;;;;;;4976620;28;21058;-47
2021/12/22 10:58:18;;;;;;;16.33;13.17;;;2.90;99.90;;;;;;4981761;28;20556;-47
2021/12/22 11:00:45;;;;;;;17.80;13.30;;;2.80;78.30;;;;;;4978514;28;20638;-47
2021/12/22 11:03:14;;;;;;;17.70;13.20;;;2.70;99.90;;;;;;4978724;28;20903;-47
2021/12/22 11:05:45;;;;;;;23.90;15.10;;;2.50;99.90;;;;;;4977715;28;20465;-47
2021/12/22 11:08:19;;;;;;;21.30;13.80;;;2.50;99.90;;;;;;4976135;28;20491;-47
2021/12/22 11:10:46;;;;;;;21.03;13.37;;;2.40;99.90;;;;;;4980952;28;21348;-46
2021/12/22 11:13:20;;;;;;;18.93;14.43;;;2.70;99.90;;;;;;4983181;28;20460;-47
2021/12/22 11:15:48;;;;;;;18.47;14.07;;;2.50;99.90;;;;;;4977634;28;20520;-49
2021/12/22 11:18:25;;;;;;;24.23;14.33;;;2.50;99.90;;;;;;4980662;28;20464;-46
2021/12/22 11:21:07;;;;;;;27.40;14.80;;;2.90;99.90;;;;;;4989469;28;20571;-48
2021/12/22 11:23:34;;;;;;;23.73;15.20;;;2.80;99.90;;;;;;4989268;28;20908;-48
2021/12/22 11:26:01;;;;;;;19.63;14.33;;;2.60;99.90;;;;;;4983727;28;20998;-46
2021/12/22 11:28:30;;;;;;;18.00;14.10;;;2.60;99.90;;;;;;4985682;28;20910;-48
2021/12/22 11:30:57;;;;;;;19.73;14.13;;;2.50;99.90;;;;;;4985752;28;20456;-52
2021/12/22 11:33:24;;;;;;;17.00;14.57;;;2.60;99.90;;;;;;4982238;28;20579;-51
2021/12/22 11:35:51;;;;;;;17.47;13.70;;;2.60;99.90;;;;;;4983673;28;20564;-51
2021/12/22 11:38:18;;;;;;;19.40;13.50;;;2.70;99.90;;;;;;4984617;28;20460;-52
2021/12/22 11:40:53;;;;;;;33.23;13.47;;;2.30;99.90;;;;;;4979444;28;20583;-51
2021/12/22 11:43:21;;;;;;;17.60;12.57;;;2.30;99.90;;;;;;4981918;28;20543;-52
2021/12/22 11:45:50;;;;;;;18.67;13.80;;;2.30;99.90;;;;;;4984839;28;20492;-51
2021/12/22 11:48:17;;;;;;;17.83;12.57;;;2.40;99.90;;;;;;4981222;28;20476;-52
2021/12/22 11:50:46;;;;;;;16.90;14.20;;;2.40;99.90;;;;;;4983035;28;20575;-52
2021/12/22 11:53:13;;;;;;;23.50;15.23;;;2.40;99.90;;;;;;4981925;28;20557;-52
2021/12/22 11:55:42;;;;;;;19.60;14.20;;;2.40;99.90;;;;;;4988013;28;21010;-52
2021/12/22 11:58:14;;;;;;;20.47;13.23;;;2.50;99.90;;;;;;4990453;28;20464;-52
2021/12/22 12:00:42;;;;;;;21.97;14.33;;;2.50;99.90;;;;;;4986995;28;20902;-52
2021/12/22 12:03:36;;;;;;;20.43;12.90;;;2.50;99.90;;;;;;4985326;28;20495;-52
2021/12/22 12:06:10;;;;;;;17.50;12.23;;;2.50;99.90;;;;;;4985658;28;20472;-52
2021/12/22 12:08:40;;;;;;;17.50;14.97;;;2.40;99.90;;;;;;4987042;28;20487;-52
2021/12/22 12:11:08;;;;;;;16.40;12.23;;;2.60;99.90;;;;;;4987883;28;20515;-52
2021/12/22 12:13:45;;;;;;;16.70;13.83;;;2.80;99.90;;;;;;4989935;28;20528;-52
2021/12/22 12:21:58;;;;;;;19.73;14.47;;;3.00;44.50;;;;;;4986351;28;20486;-51
2021/12/22 12:24:39;;;;;;;20.47;14.30;;;2.90;41.90;;;;;;4981583;28;20488;-52
2021/12/22 12:27:36;;;;;;;17.13;13.53;;;2.90;32.70;;;;;;4984612;28;20465;-52
2021/12/22 12:30:07;;;;;;;17.63;14.10;;;2.70;35.40;;;;;;4986584;28;20465;-52
2021/12/22 12:33:10;;;;;;;22.70;14.20;;;2.50;26.20;;;;;;4987917;28;20962;-53
2021/12/22 12:35:50;;;;;;;16.60;13.30;;;2.40;99.90;;;;;;4985339;28;20517;-53
2021/12/22 12:38:18;;;;;;;22.83;14.17;;;2.30;21.90;;;;;;4986615;28;20504;-52
2021/12/22 12:41:14;;;;;;;16.47;13.27;;;2.30;88.30;;;;;;4987627;28;20496;-51
2021/12/22 12:43:49;;;;;;;15.87;13.87;;;2.20;87.40;;;;;;4982260;28;20924;-52
2021/12/22 12:46:37;;;;;;;17.00;13.80;;;2.20;82.70;;;;;;4981815;28;20463;-52
2021/12/22 12:49:44;;;;;;;18.10;14.20;;;2.30;26.60;;;;;;4977702;28;20489;-53
2021/12/22 12:52:27;;;;;;;18.87;13.80;;;2.30;92.20;;;;;;4986460;28;20460;-52
2021/12/22 12:55:16;;;;;;;18.47;15.20;;;2.30;99.90;;;;;;4990661;28;20534;-52
2021/12/22 12:57:43;;;;;;;22.10;15.93;;;2.40;99.90;;;;;;4992150;28;20463;-52
2021/12/22 13:00:27;;;;;;;15.33;13.47;;;2.50;99.90;;;;;;4986320;28;20496;-52
2021/12/22 13:03:02;;;;;;;18.00;14.30;;;2.60;21.70;;;;;;4985091;28;20547;-52
2021/12/22 13:05:30;;;;;;;25.40;15.40;;;2.60;26.00;;;;;;4973733;28;20496;-52
2021/12/22 13:08:05;;;;;;;18.30;13.50;;;2.70;25.80;;;;;;4977421;28;20492;-52
2021/12/22 13:10:31;;;;;;;18.10;13.87;;;2.60;74.50;;;;;;4989462;28;20464;-52
2021/12/22 13:13:15;;;;;;;17.03;13.40;;;2.60;29.00;;;;;;4989118;28;20468;-52